sensor_id;sensor_type;location;lat;lon;timestamp;P1;durP1;ratioP1;P2;durP2;ratioP2
45676;SDS011;31390;51.186;6.830;2023-01-15T00:01:04;2.58;;;0.98;;
45676;SDS011;31390;51.186;6.830;2023-01-15T00:03:31;2.38;;;1.00;;
45676;SDS011;31390;51.186;6.830;2023-01-15T00:06:03;4.63;;;0.95;;
45676;SDS011;31390;51.186;6.830;2023-01-15T00:08:32;5.35;;;1.17;;
45676;SDS011;31390;51.186;6.830;2023-01-15T00:11:05;6.00;;;1.05;;
45676;SDS011;31390;51.186;6.830;2023-01-15T00:13:35;4.75;;;1.02;;
45676;SDS011;31390;51.186;6.830;2023-01-15T00:16:05;3.45;;;1.10;;
45676;SDS011;31390;51.186;6.830;2023-01-15T00:18:36;4.38;;;1.35;;
45676;SDS011;31390;51.186;6.830;2023-01-15T00:21:11;4.50;;;1.20;;
45676;SDS011;31390;51.186;6.830;2023-01-15T00:23:38;2.97;;;1.33;;
45676;SDS011;31390;51.186;6.830;2023-01-15T00:26:28;4.10;;;1.60;;
45676;SDS011;31390;51.186;6.830;2023-01-15T00:29:20;7.68;;;1.77;;
45676;SDS011;31390;51.186;6.830;2023-01-15T00:32:03;3.13;;;1.55;;
45676;SDS011;31390;51.186;6.830;2023-01-15T00:34:36;4.72;;;1.80;;
45676;SDS011;31390;51.186;6.830;2023-01-15T00:37:03;4.40;;;2.13;;
45676;SDS011;31390;51.186;6.830;2023-01-15T00:39:37;8.63;;;2.10;;
45676;SDS011;31390;51.186;6.830;2023-01-15T00:42:16;6.97;;;2.30;;
45676;SDS011;31390;51.186;6.830;2023-01-15T00:44:46;3.88;;;2.00;;
45676;SDS011;31390;51.186;6.830;2023-01-15T00:47:13;4.57;;;1.88;;
45676;SDS011;31390;51.186;6.830;2023-01-15T00:49:40;2.20;;;1.10;;
45676;SDS011;31390;51.186;6.830;2023-01-15T00:52:10;3.38;;;1.20;;
45676;SDS011;31390;51.186;6.830;2023-01-15T00:54:40;2.03;;;1.13;;
45676;SDS011;31390;51.186;6.830;2023-01-15T00:57:11;5.50;;;1.92;;
45676;SDS011;31390;51.186;6.830;2023-01-15T00:59:38;5.65;;;1.88;;
45676;SDS011;31390;51.186;6.830;2023-01-15T01:02:05;4.70;;;1.60;;
45676;SDS011;31390;51.186;6.830;2023-01-15T01:04:32;3.03;;;1.52;;
45676;SDS011;31390;51.186;6.830;2023-01-15T01:07:04;3.95;;;2.10;;
45676;SDS011;31390;51.186;6.830;2023-01-15T01:09:35;4.60;;;2.30;;
45676;SDS011;31390;51.186;6.830;2023-01-15T01:12:04;4.88;;;2.85;;
45676;SDS011;31390;51.186;6.830;2023-01-15T01:14:30;5.70;;;2.95;;
45676;SDS011;31390;51.186;6.830;2023-01-15T01:16:59;6.07;;;2.85;;
45676;SDS011;31390;51.186;6.830;2023-01-15T01:19:32;6.78;;;3.33;;
45676;SDS011;31390;51.186;6.830;2023-01-15T01:21:58;7.00;;;2.90;;
45676;SDS011;31390;51.186;6.830;2023-01-15T01:24:27;3.73;;;2.50;;
45676;SDS011;31390;51.186;6.830;2023-01-15T01:26:58;7.75;;;2.00;;
45676;SDS011;31390;51.186;6.830;2023-01-15T01:29:28;6.75;;;2.70;;
45676;SDS011;31390;51.186;6.830;2023-01-15T01:31:54;5.70;;;2.63;;
45676;SDS011;31390;51.186;6.830;2023-01-15T01:34:21;5.50;;;2.20;;
45676;SDS011;31390;51.186;6.830;2023-01-15T01:36:50;4.47;;;1.60;;
45676;SDS011;31390;51.186;6.830;2023-01-15T01:39:17;4.68;;;1.30;;
45676;SDS011;31390;51.186;6.830;2023-01-15T01:41:45;3.40;;;1.30;;
45676;SDS011;31390;51.186;6.830;2023-01-15T01:47:02;3.47;;;1.45;;
45676;SDS011;31390;51.186;6.830;2023-01-15T01:49:30;3.03;;;1.20;;
45676;SDS011;31390;51.186;6.830;2023-01-15T01:52:05;1.77;;;0.77;;
45676;SDS011;31390;51.186;6.830;2023-01-15T01:54:31;6.40;;;1.20;;
45676;SDS011;31390;51.186;6.830;2023-01-15T01:57:00;2.97;;;1.02;;
45676;SDS011;31390;51.186;6.830;2023-01-15T01:59:31;5.53;;;1.27;;
45676;SDS011;31390;51.186;6.830;2023-01-15T02:01:58;3.97;;;1.25;;
45676;SDS011;31390;51.186;6.830;2023-01-15T02:04:25;3.55;;;0.90;;
45676;SDS011;31390;51.186;6.830;2023-01-15T02:06:58;2.47;;;0.82;;
45676;SDS011;31390;51.186;6.830;2023-01-15T02:09:25;2.95;;;0.90;;
45676;SDS011;31390;51.186;6.830;2023-01-15T02:11:52;3.70;;;1.38;;
45676;SDS011;31390;51.186;6.830;2023-01-15T02:19:18;6.47;;;2.20;;
45676;SDS011;31390;51.186;6.830;2023-01-15T02:27:29;2.15;;;1.00;;
45676;SDS011;31390;51.186;6.830;2023-01-15T02:32:12;2.17;;;1.10;;
45676;SDS011;31390;51.186;6.830;2023-01-15T02:34:43;4.75;;;1.40;;
45676;SDS011;31390;51.186;6.830;2023-01-15T02:37:17;6.90;;;2.50;;
45676;SDS011;31390;51.186;6.830;2023-01-15T02:39:45;4.28;;;2.00;;
45676;SDS011;31390;51.186;6.830;2023-01-15T02:42:13;4.43;;;2.73;;
45676;SDS011;31390;51.186;6.830;2023-01-15T02:44:46;4.78;;;2.75;;
45676;SDS011;31390;51.186;6.830;2023-01-15T02:47:14;3.93;;;2.20;;
45676;SDS011;31390;51.186;6.830;2023-01-15T02:49:42;5.05;;;2.45;;
45676;SDS011;31390;51.186;6.830;2023-01-15T02:52:16;5.20;;;3.00;;
45676;SDS011;31390;51.186;6.830;2023-01-15T02:54:49;4.68;;;1.80;;
45676;SDS011;31390;51.186;6.830;2023-01-15T02:57:17;5.07;;;2.97;;
45676;SDS011;31390;51.186;6.830;2023-01-15T02:59:49;4.45;;;1.80;;
45676;SDS011;31390;51.186;6.830;2023-01-15T03:02:20;4.65;;;1.50;;
45676;SDS011;31390;51.186;6.830;2023-01-15T03:04:59;3.33;;;1.40;;
45676;SDS011;31390;51.186;6.830;2023-01-15T03:07:31;2.00;;;1.00;;
45676;SDS011;31390;51.186;6.830;2023-01-15T03:09:59;4.17;;;1.20;;
45676;SDS011;31390;51.186;6.830;2023-01-15T03:12:34;4.10;;;1.37;;
45676;SDS011;31390;51.186;6.830;2023-01-15T03:15:24;3.30;;;1.40;;
45676;SDS011;31390;51.186;6.830;2023-01-15T03:18:20;4.03;;;1.37;;
45676;SDS011;31390;51.186;6.830;2023-01-15T03:20:49;5.15;;;1.23;;
45676;SDS011;31390;51.186;6.830;2023-01-15T03:23:17;0.93;;;0.63;;
45676;SDS011;31390;51.186;6.830;2023-01-15T03:25:45;4.20;;;1.55;;
45676;SDS011;31390;51.186;6.830;2023-01-15T03:28:13;1.87;;;0.80;;
45676;SDS011;31390;51.186;6.830;2023-01-15T03:30:40;5.10;;;1.07;;
45676;SDS011;31390;51.186;6.830;2023-01-15T03:33:07;4.53;;;1.50;;
45676;SDS011;31390;51.186;6.830;2023-01-15T03:35:59;3.00;;;1.25;;
45676;SDS011;31390;51.186;6.830;2023-01-15T03:38:33;3.10;;;1.70;;
45676;SDS011;31390;51.186;6.830;2023-01-15T03:41:13;7.67;;;2.23;;
45676;SDS011;31390;51.186;6.830;2023-01-15T03:48:50;6.03;;;2.60;;
45676;SDS011;31390;51.186;6.830;2023-01-15T03:51:19;4.17;;;2.20;;
45676;SDS011;31390;51.186;6.830;2023-01-15T03:53:49;8.15;;;2.50;;
45676;SDS011;31390;51.186;6.830;2023-01-15T03:59:32;6.37;;;2.00;;
45676;SDS011;31390;51.186;6.830;2023-01-15T04:02:01;8.53;;;2.87;;
45676;SDS011;31390;51.186;6.830;2023-01-15T04:04:29;6.53;;;2.90;;
45676;SDS011;31390;51.186;6.830;2023-01-15T04:06:58;7.90;;;4.10;;
45676;SDS011;31390;51.186;6.830;2023-01-15T04:09:25;8.77;;;3.53;;
45676;SDS011;31390;51.186;6.830;2023-01-15T04:12:01;9.55;;;3.80;;
45676;SDS011;31390;51.186;6.830;2023-01-15T04:14:33;8.13;;;3.17;;
45676;SDS011;31390;51.186;6.830;2023-01-15T04:17:05;9.40;;;2.97;;
45676;SDS011;31390;51.186;6.830;2023-01-15T04:19:31;7.40;;;3.57;;
45676;SDS011;31390;51.186;6.830;2023-01-15T04:22:01;5.10;;;3.07;;
45676;SDS011;31390;51.186;6.830;2023-01-15T04:24:27;6.40;;;2.50;;
45676;SDS011;31390;51.186;6.830;2023-01-15T04:26:54;5.97;;;2.40;;
45676;SDS011;31390;51.186;6.830;2023-01-15T04:29:20;5.77;;;2.50;;
45676;SDS011;31390;51.186;6.830;2023-01-15T04:31:47;9.77;;;2.30;;
45676;SDS011;31390;51.186;6.830;2023-01-15T04:34:13;5.97;;;2.20;;
45676;SDS011;31390;51.186;6.830;2023-01-15T04:36:39;9.83;;;2.63;;
45676;SDS011;31390;51.186;6.830;2023-01-15T04:39:08;5.97;;;2.53;;
45676;SDS011;31390;51.186;6.830;2023-01-15T04:41:34;7.13;;;2.63;;
45676;SDS011;31390;51.186;6.830;2023-01-15T04:44:20;7.27;;;2.47;;
45676;SDS011;31390;51.186;6.830;2023-01-15T04:46:46;4.73;;;2.57;;
45676;SDS011;31390;51.186;6.830;2023-01-15T04:49:14;6.32;;;1.95;;
45676;SDS011;31390;51.186;6.830;2023-01-15T04:51:41;5.07;;;1.90;;
45676;SDS011;31390;51.186;6.830;2023-01-15T04:54:08;7.93;;;1.87;;
45676;SDS011;31390;51.186;6.830;2023-01-15T04:56:43;6.33;;;1.80;;
45676;SDS011;31390;51.186;6.830;2023-01-15T04:59:10;7.37;;;1.97;;
45676;SDS011;31390;51.186;6.830;2023-01-15T05:01:37;5.33;;;1.60;;
45676;SDS011;31390;51.186;6.830;2023-01-15T05:04:03;6.23;;;1.97;;
45676;SDS011;31390;51.186;6.830;2023-01-15T05:06:30;10.20;;;2.23;;
45676;SDS011;31390;51.186;6.830;2023-01-15T05:08:57;7.57;;;2.15;;
45676;SDS011;31390;51.186;6.830;2023-01-15T05:11:23;8.33;;;2.10;;
45676;SDS011;31390;51.186;6.830;2023-01-15T05:13:50;7.50;;;2.93;;
45676;SDS011;31390;51.186;6.830;2023-01-15T05:16:18;8.07;;;2.73;;
45676;SDS011;31390;51.186;6.830;2023-01-15T05:18:45;9.13;;;3.30;;
45676;SDS011;31390;51.186;6.830;2023-01-15T05:21:16;10.45;;;2.90;;
45676;SDS011;31390;51.186;6.830;2023-01-15T05:23:43;8.37;;;2.60;;
45676;SDS011;31390;51.186;6.830;2023-01-15T05:26:10;14.43;;;3.72;;
45676;SDS011;31390;51.186;6.830;2023-01-15T05:28:37;10.33;;;3.47;;
45676;SDS011;31390;51.186;6.830;2023-01-15T05:31:11;5.70;;;2.50;;
45676;SDS011;31390;51.186;6.830;2023-01-15T05:33:38;7.30;;;2.67;;
45676;SDS011;31390;51.186;6.830;2023-01-15T05:36:15;7.63;;;2.65;;
45676;SDS011;31390;51.186;6.830;2023-01-15T05:38:42;10.27;;;3.10;;
45676;SDS011;31390;51.186;6.830;2023-01-15T05:41:09;8.10;;;3.30;;
45676;SDS011;31390;51.186;6.830;2023-01-15T05:43:55;8.83;;;3.33;;
45676;SDS011;31390;51.186;6.830;2023-01-15T05:46:22;10.27;;;2.90;;
45676;SDS011;31390;51.186;6.830;2023-01-15T05:48:48;7.90;;;2.50;;
45676;SDS011;31390;51.186;6.830;2023-01-15T05:51:15;9.50;;;2.87;;
45676;SDS011;31390;51.186;6.830;2023-01-15T05:53:42;9.95;;;2.80;;
45676;SDS011;31390;51.186;6.830;2023-01-15T05:56:08;9.20;;;2.17;;
45676;SDS011;31390;51.186;6.830;2023-01-15T05:58:35;5.40;;;2.10;;
45676;SDS011;31390;51.186;6.830;2023-01-15T06:01:07;7.00;;;2.10;;
45676;SDS011;31390;51.186;6.830;2023-01-15T06:03:34;9.63;;;2.10;;
45676;SDS011;31390;51.186;6.830;2023-01-15T06:06:01;7.53;;;2.30;;
45676;SDS011;31390;51.186;6.830;2023-01-15T06:08:27;6.10;;;2.60;;
45676;SDS011;31390;51.186;6.830;2023-01-15T06:10:54;8.18;;;2.25;;
45676;SDS011;31390;51.186;6.830;2023-01-15T06:13:20;11.67;;;2.93;;
45676;SDS011;31390;51.186;6.830;2023-01-15T06:15:47;7.10;;;1.93;;
45676;SDS011;31390;51.186;6.830;2023-01-15T06:18:13;6.77;;;1.90;;
45676;SDS011;31390;51.186;6.830;2023-01-15T06:20:40;6.40;;;2.13;;
45676;SDS011;31390;51.186;6.830;2023-01-15T06:23:08;10.17;;;1.80;;
45676;SDS011;31390;51.186;6.830;2023-01-15T06:25:34;7.80;;;2.23;;
45676;SDS011;31390;51.186;6.830;2023-01-15T06:28:02;4.10;;;1.77;;
45676;SDS011;31390;51.186;6.830;2023-01-15T06:30:29;5.57;;;1.80;;
45676;SDS011;31390;51.186;6.830;2023-01-15T06:32:55;7.37;;;1.90;;
45676;SDS011;31390;51.186;6.830;2023-01-15T06:35:22;6.40;;;2.10;;
45676;SDS011;31390;51.186;6.830;2023-01-15T06:37:49;6.43;;;1.90;;
45676;SDS011;31390;51.186;6.830;2023-01-15T06:40:15;7.03;;;1.90;;
45676;SDS011;31390;51.186;6.830;2023-01-15T06:42:42;6.57;;;1.90;;
45676;SDS011;31390;51.186;6.830;2023-01-15T06:45:28;6.57;;;1.83;;
45676;SDS011;31390;51.186;6.830;2023-01-15T06:48:17;11.10;;;1.77;;
45676;SDS011;31390;51.186;6.830;2023-01-15T06:50:44;6.43;;;2.13;;
45676;SDS011;31390;51.186;6.830;2023-01-15T06:53:10;7.60;;;1.70;;
45676;SDS011;31390;51.186;6.830;2023-01-15T06:55:38;8.50;;;2.23;;
45676;SDS011;31390;51.186;6.830;2023-01-15T06:58:05;7.00;;;1.67;;
45676;SDS011;31390;51.186;6.830;2023-01-15T07:00:31;5.40;;;1.97;;
45676;SDS011;31390;51.186;6.830;2023-01-15T07:02:59;5.23;;;1.90;;
45676;SDS011;31390;51.186;6.830;2023-01-15T07:05:25;9.47;;;2.80;;
45676;SDS011;31390;51.186;6.830;2023-01-15T07:07:52;9.23;;;1.90;;
45676;SDS011;31390;51.186;6.830;2023-01-15T07:10:18;8.07;;;2.10;;
45676;SDS011;31390;51.186;6.830;2023-01-15T07:12:45;6.83;;;1.50;;
45676;SDS011;31390;51.186;6.830;2023-01-15T07:15:11;5.73;;;1.70;;
45676;SDS011;31390;51.186;6.830;2023-01-15T07:17:38;4.57;;;1.73;;
45676;SDS011;31390;51.186;6.830;2023-01-15T07:20:04;6.03;;;1.80;;
45676;SDS011;31390;51.186;6.830;2023-01-15T07:22:32;5.47;;;1.60;;
45676;SDS011;31390;51.186;6.830;2023-01-15T07:24:58;5.93;;;2.07;;
45676;SDS011;31390;51.186;6.830;2023-01-15T07:27:24;6.47;;;1.70;;
45676;SDS011;31390;51.186;6.830;2023-01-15T07:29:51;5.43;;;1.90;;
45676;SDS011;31390;51.186;6.830;2023-01-15T07:32:18;4.80;;;1.60;;
45676;SDS011;31390;51.186;6.830;2023-01-15T07:34:44;6.40;;;2.13;;
45676;SDS011;31390;51.186;6.830;2023-01-15T07:37:11;7.63;;;2.13;;
45676;SDS011;31390;51.186;6.830;2023-01-15T07:39:37;6.80;;;2.37;;
45676;SDS011;31390;51.186;6.830;2023-01-15T07:42:04;7.87;;;2.00;;
45676;SDS011;31390;51.186;6.830;2023-01-15T07:44:49;9.17;;;2.07;;
45676;SDS011;31390;51.186;6.830;2023-01-15T07:47:34;6.40;;;2.13;;
45676;SDS011;31390;51.186;6.830;2023-01-15T07:50:21;6.43;;;1.93;;
45676;SDS011;31390;51.186;6.830;2023-01-15T07:52:47;4.63;;;1.67;;
45676;SDS011;31390;51.186;6.830;2023-01-15T07:55:17;6.53;;;1.97;;
45676;SDS011;31390;51.186;6.830;2023-01-15T07:57:43;6.57;;;2.20;;
45676;SDS011;31390;51.186;6.830;2023-01-15T08:00:18;6.67;;;1.70;;
45676;SDS011;31390;51.186;6.830;2023-01-15T08:02:46;7.67;;;2.40;;
45676;SDS011;31390;51.186;6.830;2023-01-15T08:05:15;6.27;;;2.17;;
45676;SDS011;31390;51.186;6.830;2023-01-15T08:07:42;4.30;;;1.83;;
45676;SDS011;31390;51.186;6.830;2023-01-15T08:10:09;6.73;;;1.90;;
45676;SDS011;31390;51.186;6.830;2023-01-15T08:12:36;7.03;;;1.90;;
45676;SDS011;31390;51.186;6.830;2023-01-15T08:15:23;8.73;;;1.87;;
45676;SDS011;31390;51.186;6.830;2023-01-15T08:17:49;4.97;;;1.67;;
45676;SDS011;31390;51.186;6.830;2023-01-15T08:20:17;8.43;;;1.90;;
45676;SDS011;31390;51.186;6.830;2023-01-15T08:22:44;3.97;;;1.40;;
45676;SDS011;31390;51.186;6.830;2023-01-15T08:25:12;5.40;;;1.73;;
45676;SDS011;31390;51.186;6.830;2023-01-15T08:27:39;3.30;;;1.17;;
45676;SDS011;31390;51.186;6.830;2023-01-15T08:30:07;4.60;;;1.33;;
45676;SDS011;31390;51.186;6.830;2023-01-15T08:32:35;3.23;;;1.00;;
45676;SDS011;31390;51.186;6.830;2023-01-15T08:35:02;4.63;;;1.50;;
45676;SDS011;31390;51.186;6.830;2023-01-15T08:37:29;3.17;;;1.10;;
45676;SDS011;31390;51.186;6.830;2023-01-15T08:39:55;2.57;;;1.27;;
45676;SDS011;31390;51.186;6.830;2023-01-15T08:42:21;3.63;;;0.93;;
45676;SDS011;31390;51.186;6.830;2023-01-15T08:44:48;2.90;;;0.70;;
45676;SDS011;31390;51.186;6.830;2023-01-15T08:47:16;2.67;;;0.80;;
45676;SDS011;31390;51.186;6.830;2023-01-15T08:49:43;2.20;;;1.00;;
45676;SDS011;31390;51.186;6.830;2023-01-15T08:52:11;2.63;;;0.90;;
45676;SDS011;31390;51.186;6.830;2023-01-15T08:54:37;3.63;;;1.20;;
45676;SDS011;31390;51.186;6.830;2023-01-15T08:57:06;1.93;;;0.60;;
45676;SDS011;31390;51.186;6.830;2023-01-15T08:59:34;2.83;;;0.83;;
45676;SDS011;31390;51.186;6.830;2023-01-15T09:02:01;3.60;;;0.77;;
45676;SDS011;31390;51.186;6.830;2023-01-15T09:04:29;2.77;;;0.90;;
45676;SDS011;31390;51.186;6.830;2023-01-15T09:06:55;3.90;;;1.10;;
45676;SDS011;31390;51.186;6.830;2023-01-15T09:09:22;2.77;;;0.87;;
45676;SDS011;31390;51.186;6.830;2023-01-15T09:11:48;3.70;;;0.90;;
45676;SDS011;31390;51.186;6.830;2023-01-15T09:14:15;3.20;;;1.13;;
45676;SDS011;31390;51.186;6.830;2023-01-15T09:17:01;5.33;;;1.40;;
45676;SDS011;31390;51.186;6.830;2023-01-15T09:19:28;6.10;;;1.63;;
45676;SDS011;31390;51.186;6.830;2023-01-15T09:21:54;8.30;;;2.10;;
45676;SDS011;31390;51.186;6.830;2023-01-15T09:24:22;5.17;;;1.60;;
45676;SDS011;31390;51.186;6.830;2023-01-15T09:26:50;4.60;;;1.33;;
45676;SDS011;31390;51.186;6.830;2023-01-15T09:29:27;6.33;;;1.47;;
45676;SDS011;31390;51.186;6.830;2023-01-15T09:31:54;7.30;;;1.83;;
45676;SDS011;31390;51.186;6.830;2023-01-15T09:34:20;4.70;;;1.67;;
45676;SDS011;31390;51.186;6.830;2023-01-15T09:36:46;4.53;;;1.70;;
45676;SDS011;31390;51.186;6.830;2023-01-15T09:39:13;7.17;;;2.37;;
45676;SDS011;31390;51.186;6.830;2023-01-15T09:41:51;5.27;;;1.90;;
45676;SDS011;31390;51.186;6.830;2023-01-15T09:44:32;8.40;;;2.00;;
45676;SDS011;31390;51.186;6.830;2023-01-15T09:47:03;11.83;;;2.60;;
45676;SDS011;31390;51.186;6.830;2023-01-15T09:54:52;10.17;;;2.07;;
45676;SDS011;31390;51.186;6.830;2023-01-15T09:57:22;8.60;;;2.53;;
45676;SDS011;31390;51.186;6.830;2023-01-15T09:59:50;6.50;;;1.97;;
45676;SDS011;31390;51.186;6.830;2023-01-15T10:02:20;9.57;;;2.50;;
45676;SDS011;31390;51.186;6.830;2023-01-15T10:04:48;5.47;;;1.70;;
45676;SDS011;31390;51.186;6.830;2023-01-15T10:07:31;7.27;;;2.40;;
45676;SDS011;31390;51.186;6.830;2023-01-15T10:10:00;8.77;;;2.47;;
45676;SDS011;31390;51.186;6.830;2023-01-15T10:12:28;10.80;;;2.20;;
45676;SDS011;31390;51.186;6.830;2023-01-15T10:17:36;6.45;;;1.83;;
45676;SDS011;31390;51.186;6.830;2023-01-15T10:20:12;12.10;;;2.00;;
45676;SDS011;31390;51.186;6.830;2023-01-15T10:22:43;7.97;;;2.17;;
45676;SDS011;31390;51.186;6.830;2023-01-15T10:25:16;5.80;;;2.47;;
45676;SDS011;31390;51.186;6.830;2023-01-15T10:27:49;8.93;;;1.83;;
45676;SDS011;31390;51.186;6.830;2023-01-15T10:30:16;6.05;;;2.03;;
45676;SDS011;31390;51.186;6.830;2023-01-15T10:32:49;6.32;;;2.10;;
45676;SDS011;31390;51.186;6.830;2023-01-15T10:38:04;6.25;;;2.15;;
45676;SDS011;31390;51.186;6.830;2023-01-15T10:43:29;7.03;;;1.83;;
45676;SDS011;31390;51.186;6.830;2023-01-15T10:45:59;10.85;;;1.98;;
45676;SDS011;31390;51.186;6.830;2023-01-15T10:48:31;7.55;;;2.05;;
45676;SDS011;31390;51.186;6.830;2023-01-15T10:51:00;6.23;;;1.83;;
45676;SDS011;31390;51.186;6.830;2023-01-15T10:53:30;6.38;;;1.80;;
45676;SDS011;31390;51.186;6.830;2023-01-15T10:56:01;5.30;;;2.05;;
45676;SDS011;31390;51.186;6.830;2023-01-15T10:58:36;9.70;;;2.05;;
45676;SDS011;31390;51.186;6.830;2023-01-15T11:01:09;8.25;;;2.20;;
45676;SDS011;31390;51.186;6.830;2023-01-15T11:03:39;8.63;;;2.05;;
45676;SDS011;31390;51.186;6.830;2023-01-15T11:06:16;4.55;;;1.60;;
45676;SDS011;31390;51.186;6.830;2023-01-15T11:08:49;12.93;;;2.25;;
45676;SDS011;31390;51.186;6.830;2023-01-15T11:11:40;6.22;;;1.60;;
45676;SDS011;31390;51.186;6.830;2023-01-15T11:14:42;7.30;;;1.73;;
45676;SDS011;31390;51.186;6.830;2023-01-15T11:17:31;7.18;;;1.70;;
45676;SDS011;31390;51.186;6.830;2023-01-15T11:20:35;7.10;;;1.70;;
45676;SDS011;31390;51.186;6.830;2023-01-15T11:23:14;8.52;;;2.45;;
45676;SDS011;31390;51.186;6.830;2023-01-15T11:25:48;7.28;;;1.48;;
45676;SDS011;31390;51.186;6.830;2023-01-15T11:28:15;7.90;;;1.90;;
45676;SDS011;31390;51.186;6.830;2023-01-15T11:30:51;5.70;;;1.50;;
45676;SDS011;31390;51.186;6.830;2023-01-15T11:33:24;5.30;;;1.45;;
45676;SDS011;31390;51.186;6.830;2023-01-15T11:35:55;5.32;;;1.73;;
45676;SDS011;31390;51.186;6.830;2023-01-15T11:38:31;4.80;;;1.58;;
45676;SDS011;31390;51.186;6.830;2023-01-15T11:41:18;8.48;;;1.65;;
45676;SDS011;31390;51.186;6.830;2023-01-15T11:43:52;4.53;;;1.52;;
45676;SDS011;31390;51.186;6.830;2023-01-15T11:46:37;3.97;;;1.48;;
45676;SDS011;31390;51.186;6.830;2023-01-15T11:49:22;5.53;;;1.42;;
45676;SDS011;31390;51.186;6.830;2023-01-15T11:52:17;5.10;;;1.38;;
45676;SDS011;31390;51.186;6.830;2023-01-15T11:54:45;4.15;;;0.90;;
45676;SDS011;31390;51.186;6.830;2023-01-15T11:57:35;7.82;;;1.35;;
45676;SDS011;31390;51.186;6.830;2023-01-15T12:00:01;3.22;;;1.20;;
45676;SDS011;31390;51.186;6.830;2023-01-15T12:02:33;5.75;;;1.73;;
45676;SDS011;31390;51.186;6.830;2023-01-15T12:05:23;6.80;;;1.30;;
45676;SDS011;31390;51.186;6.830;2023-01-15T12:07:51;3.33;;;1.20;;
45676;SDS011;31390;51.186;6.830;2023-01-15T12:13:27;5.47;;;1.48;;
45676;SDS011;31390;51.186;6.830;2023-01-15T12:18:41;5.25;;;1.40;;
45676;SDS011;31390;51.186;6.830;2023-01-15T12:21:21;6.60;;;2.00;;
45676;SDS011;31390;51.186;6.830;2023-01-15T12:28:53;4.20;;;1.10;;
45676;SDS011;31390;51.186;6.830;2023-01-15T12:31:23;4.00;;;1.08;;
45676;SDS011;31390;51.186;6.830;2023-01-15T12:33:52;5.60;;;1.50;;
45676;SDS011;31390;51.186;6.830;2023-01-15T12:36:21;4.13;;;1.27;;
45676;SDS011;31390;51.186;6.830;2023-01-15T12:38:59;2.63;;;1.08;;
45676;SDS011;31390;51.186;6.830;2023-01-15T12:41:33;5.43;;;1.10;;
45676;SDS011;31390;51.186;6.830;2023-01-15T12:44:43;4.47;;;1.20;;
45676;SDS011;31390;51.186;6.830;2023-01-15T12:47:33;2.15;;;1.20;;
45676;SDS011;31390;51.186;6.830;2023-01-15T12:52:35;3.05;;;1.27;;
45676;SDS011;31390;51.186;6.830;2023-01-15T12:55:13;3.28;;;1.17;;
45676;SDS011;31390;51.186;6.830;2023-01-15T12:57:50;2.83;;;1.33;;
45676;SDS011;31390;51.186;6.830;2023-01-15T13:00:19;6.72;;;1.75;;
45676;SDS011;31390;51.186;6.830;2023-01-15T13:05:30;3.85;;;1.30;;
45676;SDS011;31390;51.186;6.830;2023-01-15T13:08:10;4.70;;;1.60;;
45676;SDS011;31390;51.186;6.830;2023-01-15T13:10:38;4.43;;;1.55;;
45676;SDS011;31390;51.186;6.830;2023-01-15T13:13:13;4.10;;;1.38;;
45676;SDS011;31390;51.186;6.830;2023-01-15T13:15:51;5.32;;;1.65;;
45676;SDS011;31390;51.186;6.830;2023-01-15T13:18:25;5.43;;;1.45;;
45676;SDS011;31390;51.186;6.830;2023-01-15T13:20:56;4.38;;;1.15;;
45676;SDS011;31390;51.186;6.830;2023-01-15T13:29:21;2.58;;;1.15;;
45676;SDS011;31390;51.186;6.830;2023-01-15T13:33:43;6.18;;;1.40;;
45676;SDS011;31390;51.186;6.830;2023-01-15T13:36:13;3.53;;;1.23;;
45676;SDS011;31390;51.186;6.830;2023-01-15T13:38:42;2.25;;;1.17;;
45676;SDS011;31390;51.186;6.830;2023-01-15T13:41:11;6.53;;;1.38;;
45676;SDS011;31390;51.186;6.830;2023-01-15T13:43:40;3.75;;;1.10;;
45676;SDS011;31390;51.186;6.830;2023-01-15T13:46:11;4.88;;;1.27;;
45676;SDS011;31390;51.186;6.830;2023-01-15T13:48:42;7.78;;;1.85;;
45676;SDS011;31390;51.186;6.830;2023-01-15T13:53:46;3.70;;;1.45;;
45676;SDS011;31390;51.186;6.830;2023-01-15T13:56:24;3.88;;;1.38;;
45676;SDS011;31390;51.186;6.830;2023-01-15T13:58:56;3.92;;;1.23;;
45676;SDS011;31390;51.186;6.830;2023-01-15T14:01:46;3.05;;;1.20;;
45676;SDS011;31390;51.186;6.830;2023-01-15T14:04:13;4.40;;;1.13;;
45676;SDS011;31390;51.186;6.830;2023-01-15T14:06:44;4.28;;;1.40;;
45676;SDS011;31390;51.186;6.830;2023-01-15T14:09:12;4.70;;;1.20;;
45676;SDS011;31390;51.186;6.830;2023-01-15T14:19:28;4.15;;;1.40;;
45676;SDS011;31390;51.186;6.830;2023-01-15T14:26:58;3.03;;;1.00;;
45676;SDS011;31390;51.186;6.830;2023-01-15T14:32:01;5.83;;;1.57;;
45676;SDS011;31390;51.186;6.830;2023-01-15T14:34:31;3.88;;;1.20;;
45676;SDS011;31390;51.186;6.830;2023-01-15T14:37:01;3.85;;;1.30;;
45676;SDS011;31390;51.186;6.830;2023-01-15T14:42:27;5.20;;;1.70;;
45676;SDS011;31390;51.186;6.830;2023-01-15T14:50:27;3.20;;;1.17;;
45676;SDS011;31390;51.186;6.830;2023-01-15T15:01:10;4.17;;;1.10;;
45676;SDS011;31390;51.186;6.830;2023-01-15T15:03:40;6.00;;;1.10;;
45676;SDS011;31390;51.186;6.830;2023-01-15T15:06:08;2.17;;;1.10;;
45676;SDS011;31390;51.186;6.830;2023-01-15T15:08:36;17.63;;;1.40;;
45676;SDS011;31390;51.186;6.830;2023-01-15T15:11:05;6.17;;;1.23;;
45676;SDS011;31390;51.186;6.830;2023-01-15T15:13:59;2.60;;;1.27;;
45676;SDS011;31390;51.186;6.830;2023-01-15T15:16:26;5.28;;;1.88;;
45676;SDS011;31390;51.186;6.830;2023-01-15T15:19:00;2.17;;;1.02;;
45676;SDS011;31390;51.186;6.830;2023-01-15T15:21:30;4.10;;;1.33;;
45676;SDS011;31390;51.186;6.830;2023-01-15T15:24:02;4.95;;;1.00;;
45676;SDS011;31390;51.186;6.830;2023-01-15T15:26:31;4.93;;;0.90;;
45676;SDS011;31390;51.186;6.830;2023-01-15T15:28:59;2.90;;;0.68;;
45676;SDS011;31390;51.186;6.830;2023-01-15T15:31:27;2.05;;;0.82;;
45676;SDS011;31390;51.186;6.830;2023-01-15T15:33:56;3.05;;;1.05;;
45676;SDS011;31390;51.186;6.830;2023-01-15T15:36:24;3.88;;;1.60;;
45676;SDS011;31390;51.186;6.830;2023-01-15T15:38:52;3.65;;;1.48;;
45676;SDS011;31390;51.186;6.830;2023-01-15T15:41:19;3.03;;;1.33;;
45676;SDS011;31390;51.186;6.830;2023-01-15T15:44:10;5.03;;;1.52;;
45676;SDS011;31390;51.186;6.830;2023-01-15T15:47:16;3.40;;;1.30;;
45676;SDS011;31390;51.186;6.830;2023-01-15T15:50:01;3.00;;;1.52;;
45676;SDS011;31390;51.186;6.830;2023-01-15T15:52:28;2.25;;;1.30;;
45676;SDS011;31390;51.186;6.830;2023-01-15T15:54:58;2.53;;;1.20;;
45676;SDS011;31390;51.186;6.830;2023-01-15T15:57:28;3.08;;;1.23;;
45676;SDS011;31390;51.186;6.830;2023-01-15T15:59:55;4.07;;;1.08;;
45676;SDS011;31390;51.186;6.830;2023-01-15T16:02:29;4.70;;;1.33;;
45676;SDS011;31390;51.186;6.830;2023-01-15T16:05:00;2.97;;;1.20;;
45676;SDS011;31390;51.186;6.830;2023-01-15T16:07:31;2.78;;;1.38;;
45676;SDS011;31390;51.186;6.830;2023-01-15T16:10:03;3.05;;;1.15;;
45676;SDS011;31390;51.186;6.830;2023-01-15T16:12:35;2.30;;;1.23;;
45676;SDS011;31390;51.186;6.830;2023-01-15T16:15:05;5.00;;;1.63;;
45676;SDS011;31390;51.186;6.830;2023-01-15T16:17:33;5.33;;;1.57;;
45676;SDS011;31390;51.186;6.830;2023-01-15T16:20:00;2.53;;;1.08;;
45676;SDS011;31390;51.186;6.830;2023-01-15T16:22:27;4.28;;;1.15;;
45676;SDS011;31390;51.186;6.830;2023-01-15T16:24:55;4.60;;;0.93;;
45676;SDS011;31390;51.186;6.830;2023-01-15T16:27:22;2.22;;;1.20;;
45676;SDS011;31390;51.186;6.830;2023-01-15T16:29:52;4.05;;;1.67;;
45676;SDS011;31390;51.186;6.830;2023-01-15T16:32:21;4.32;;;1.25;;
45676;SDS011;31390;51.186;6.830;2023-01-15T16:34:48;4.32;;;1.73;;
45676;SDS011;31390;51.186;6.830;2023-01-15T16:37:25;2.80;;;1.40;;
45676;SDS011;31390;51.186;6.830;2023-01-15T16:39:52;2.78;;;1.25;;
45676;SDS011;31390;51.186;6.830;2023-01-15T16:42:23;2.25;;;1.23;;
45676;SDS011;31390;51.186;6.830;2023-01-15T16:44:51;4.20;;;1.30;;
45676;SDS011;31390;51.186;6.830;2023-01-15T16:47:23;3.47;;;1.50;;